High wind

Not for real navigation. The accuracy of this data is not assured See disclaimer for more information



ICAO NAME COUNTRY WIND Kt GUST Kt VIS m TEMP/DEW C BARO METAR
MMGM Guaymas International Airport Mexico 80 0 16000 32/29 29.80 MMGM 191440Z 030080KT 10SM SCT200 32/29 A2980 RMK 8/002 HZY
HRYR Kigali Rwanda 65 0 9999 27/9 30.06 HRYR 191400Z 170065KT 9999 SCT025 SCT100 27/09 Q1018 NOSIG
CYXN Whale Cove Airport Canada 32 39 4800 8/6 29.63 CYXN 191500Z 04032G39KT 3SM -RA OVC062 08/06 A2963 RMK ST8 SLP036
CWDA Englee Meteorological Aeronaut Canada 31 0 9999 21/16 29.92 CWDA 191400Z AUTO 00031KT 21/16 RMK AO1 SLP154 T02050155 50006
ENQA 31 0 5000 14/12 29.53 ENQA 191450Z AUTO 21031KT 5000NDV -RA BKN016/// OVC064/// 14/12 Q1000 W13/S4

Show more